首页
METAR-TAF:

METAR-TAF

机场 :

波内赫, 荷属安的列斯

纬度: 12-09N, 经度: 068-17W, 海拔: 6米

当前天气观测

该预报发布于14分钟前的09:55 UTC
风速11节,风向
温度 28°C
湿度 79%
气压 1010 hPa
能见度10公里或以上

METAR: TNCB 190955Z AUTO 09011KT 9999 FEW017/// 28/24 Q1010

时间: 06:09 (10:09 UTC)

预报

该预报发布于5小时和31分钟前的04:38 UTC
预报有效从19日的 06点(UTC)到 20日的 12点(UTC)
风速15节,风向
能见度10公里或以上
散云层高于1800英尺

TAF: TNCB 190438Z 1906/2012 09015KT 9999 SCT018

超过4000个机场的气象观测和天气预报(METAR&TAF报告)。

可查询的气象台以黄色和红色小点在地图上表示。

将鼠标移到小点上方,可查看气象台名称。

然后点击查看天气观测和预报。

如需切换地图:点击带黑十字的绿色按钮放大地图;点击带横线的绿色按钮缩小地图;或者点击绿色箭头查看邻近地区的地图。


METAR-TAF: